createdAt,value
2023-03-28T00:00:07.399Z,882.94
2023-03-28T00:01:02.653Z,892.38
2023-03-28T00:01:58.354Z,897.18
2023-03-28T00:02:53.633Z,910.02
2023-03-28T00:03:49.345Z,919.42
2023-03-28T00:04:44.595Z,920.05
2023-03-28T00:05:39.808Z,921.96
2023-03-28T00:06:35.579Z,936.84
2023-03-28T00:07:30.781Z,934.22
2023-03-28T00:08:25.952Z,938.82
2023-03-28T00:09:22.394Z,947.48
2023-03-28T00:10:17.312Z,956.30
2023-03-28T00:11:12.312Z,951.53
2023-03-28T00:12:07.423Z,960.43
2023-03-28T00:13:02.484Z,957.68
2023-03-28T00:13:57.615Z,941.47
2023-03-28T00:14:52.778Z,942.80
2023-03-28T00:15:47.735Z,950.18
2023-03-28T00:16:42.790Z,956.99
2023-03-28T00:17:37.896Z,948.15
2023-03-28T00:18:34.440Z,938.82
2023-03-28T00:19:29.490Z,957.68
2023-03-28T00:20:24.437Z,975.88
2023-03-28T00:21:19.498Z,980.18
2023-03-28T00:22:14.556Z,971.62
2023-03-28T00:23:09.617Z,980.90
2023-03-28T00:24:04.804Z,988.89
2023-03-28T00:24:59.811Z,994.04
2023-03-28T00:25:54.932Z,969.50
2023-03-28T00:26:50.145Z,963.20
2023-03-28T00:27:45.265Z,965.99
2023-03-28T00:28:40.350Z,985.24
2023-03-28T00:29:38.374Z,997.76
2023-03-28T00:30:33.355Z,1018.31
2023-03-28T00:31:28.311Z,1037.30
2023-03-28T00:32:23.451Z,1019.08
2023-03-28T00:33:18.417Z,1026.92
2023-03-28T00:34:13.588Z,1034.88
2023-03-28T00:35:08.534Z,1013.67
2023-03-28T00:36:04.006Z,1009.07
2023-03-28T00:36:58.703Z,1009.83
2023-03-28T00:37:53.823Z,1022.21
2023-03-28T00:38:49.018Z,1031.69
2023-03-28T00:39:44.364Z,1019.08
2023-03-28T00:40:39.157Z,1038.10
2023-03-28T00:41:34.305Z,1056.17
2023-03-28T00:42:29.383Z,1052.01
2023-03-28T00:43:24.504Z,1042.97
2023-03-28T00:44:19.603Z,1057.84
2023-03-28T00:45:14.710Z,1064.59
2023-03-28T00:46:09.723Z,1068.00
2023-03-28T00:47:05.612Z,1081.85
2023-03-28T00:48:00.774Z,1072.29
2023-03-28T00:48:55.890Z,1051.18
2023-03-28T00:49:51.839Z,1061.21
2023-03-28T00:50:47.018Z,1062.90
2023-03-28T00:51:42.791Z,1065.44
2023-03-28T00:52:38.015Z,1082.72
2023-03-28T00:53:33.285Z,1088.91
2023-03-28T00:54:29.109Z,1088.91
2023-03-28T00:55:24.529Z,1095.16
2023-03-28T00:56:19.646Z,1092.47
2023-03-28T00:57:16.424Z,1105.13
2023-03-28T00:58:11.595Z,1086.25
2023-03-28T00:59:07.353Z,1072.29
2023-03-28T01:00:02.597Z,1077.48
2023-03-28T01:00:57.841Z,1080.97
2023-03-28T01:01:53.708Z,1085.37
2023-03-28T01:02:48.931Z,1064.59
2023-03-28T01:03:44.867Z,1068.00
2023-03-28T01:04:39.716Z,1050.35
2023-03-28T01:05:35.018Z,1047.88
2023-03-28T01:06:30.816Z,1046.24
2023-03-28T01:07:26.097Z,1052.84
2023-03-28T01:08:21.419Z,1038.10
2023-03-28T01:09:17.529Z,1019.08
2023-03-28T01:10:12.749Z,1028.51
2023-03-28T01:11:08.607Z,1036.49
2023-03-28T01:12:03.807Z,1019.86
2023-03-28T01:12:59.111Z,1020.64
2023-03-28T01:13:54.731Z,1023.77
2023-03-28T01:14:49.978Z,1040.53
2023-03-28T01:15:45.990Z,1057.01
2023-03-28T01:16:41.151Z,1064.59
2023-03-28T01:17:36.396Z,1068.00
2023-03-28T01:18:32.078Z,1069.71
2023-03-28T01:19:27.331Z,1081.85
2023-03-28T01:20:22.577Z,1081.85
2023-03-28T01:21:18.917Z,1071.43
2023-03-28T01:22:14.045Z,1072.29
2023-03-28T01:23:09.818Z,1078.35
2023-03-28T01:24:11.567Z,1038.10
2023-03-28T01:25:01.761Z,1015.98
2023-03-28T01:25:56.241Z,1006.03
2023-03-28T01:26:51.993Z,996.27
2023-03-28T01:27:47.168Z,991.83
2023-03-28T01:28:42.337Z,1012.90
2023-03-28T01:29:38.284Z,1002.25
2023-03-28T01:30:33.485Z,993.30
2023-03-28T01:31:29.550Z,988.89
2023-03-28T01:32:24.572Z,983.06
2023-03-28T01:33:19.870Z,963.20
2023-03-28T01:34:15.626Z,959.74
2023-03-28T01:35:10.873Z,948.83
2023-03-28T01:36:06.067Z,957.68
2023-03-28T01:37:02.394Z,952.89
2023-03-28T01:37:57.556Z,984.51
2023-03-28T01:38:53.479Z,986.70
2023-03-28T01:39:48.603Z,982.34
2023-03-28T01:40:43.941Z,991.83
2023-03-28T01:41:39.569Z,997.01
2023-03-28T01:42:34.776Z,996.27
2023-03-28T01:43:30.528Z,1003.01
2023-03-28T01:44:25.762Z,1009.83
2023-03-28T01:45:21.086Z,1012.13
2023-03-28T01:46:16.287Z,1011.36
2023-03-28T01:47:11.352Z,1015.98
2023-03-28T01:48:07.196Z,1014.44
2023-03-28T01:49:02.342Z,1022.99
2023-03-28T01:49:57.731Z,1035.69
2023-03-28T01:50:53.397Z,1046.24
2023-03-28T01:51:48.689Z,1052.84
2023-03-28T01:52:44.464Z,1050.35
2023-03-28T01:53:39.649Z,1069.71
2023-03-28T01:54:35.053Z,1075.74
2023-03-28T01:55:30.723Z,1091.58
2023-03-28T01:56:26.003Z,1068.00
2023-03-28T01:57:21.470Z,1054.50
2023-03-28T01:58:17.429Z,1050.35
2023-03-28T01:59:12.660Z,1049.53
2023-03-28T02:00:08.473Z,1055.34
2023-03-28T02:01:03.727Z,1058.68
2023-03-28T02:01:58.874Z,1070.57
2023-03-28T02:02:54.103Z,1073.15
2023-03-28T02:03:49.449Z,1074.88
2023-03-28T02:04:44.413Z,1058.68
2023-03-28T02:05:39.560Z,1042.97
2023-03-28T02:06:34.651Z,1040.53
2023-03-28T02:07:29.945Z,1044.60
2023-03-28T02:08:24.747Z,1039.72
2023-03-28T02:09:19.901Z,1038.91
2023-03-28T02:10:14.945Z,1048.70
2023-03-28T02:11:10.130Z,1080.10
2023-03-28T02:12:08.355Z,1091.58
2023-03-28T02:13:03.322Z,1081.85
2023-03-28T02:13:58.284Z,1103.31
2023-03-28T02:14:53.378Z,1099.67
2023-03-28T02:15:48.483Z,1096.96
2023-03-28T02:16:43.639Z,1094.26
2023-03-28T02:17:38.885Z,1106.96
2023-03-28T02:18:33.715Z,1070.57
2023-03-28T02:19:28.701Z,1050.35
2023-03-28T02:20:23.784Z,1052.01
2023-03-28T02:21:18.795Z,1059.52
2023-03-28T02:22:13.907Z,1056.17
2023-03-28T02:23:08.872Z,1044.60
2023-03-28T02:24:04.020Z,1047.88
2023-03-28T02:24:59.067Z,1027.71
2023-03-28T02:25:54.202Z,1017.53
2023-03-28T02:26:49.264Z,1032.48
2023-03-28T02:27:44.417Z,1033.28
2023-03-28T02:28:39.364Z,1041.34
2023-03-28T02:29:34.464Z,1042.97
2023-03-28T02:30:29.556Z,1034.88
2023-03-28T02:31:24.706Z,1030.89
2023-03-28T02:32:19.739Z,1031.69
2023-03-28T02:33:15.072Z,1034.88
2023-03-28T02:34:10.031Z,1033.28
2023-03-28T02:35:05.229Z,997.01
2023-03-28T02:36:00.609Z,991.09
2023-03-28T02:36:57.161Z,983.79
2023-03-28T02:37:50.643Z,916.27
2023-03-28T02:38:46.002Z,910.64
2023-03-28T02:39:40.996Z,920.69
2023-03-28T02:40:36.326Z,933.57
2023-03-28T02:41:31.357Z,937.50
2023-03-28T02:42:26.708Z,944.13
2023-03-28T02:43:21.842Z,950.85
2023-03-28T02:44:20.760Z,951.53
2023-03-28T02:45:12.320Z,950.18
2023-03-28T02:46:07.520Z,947.48
2023-03-28T02:47:02.686Z,941.47
2023-03-28T02:47:57.891Z,947.48
2023-03-28T02:48:53.169Z,952.89
2023-03-28T02:49:50.680Z,950.18
2023-03-28T02:50:43.293Z,937.50
2023-03-28T02:51:38.485Z,925.80
2023-03-28T02:52:33.768Z,916.90
2023-03-28T02:53:28.823Z,915.64
2023-03-28T02:54:24.143Z,919.42
2023-03-28T02:55:19.190Z,927.73
2023-03-28T02:56:14.346Z,940.80
2023-03-28T02:57:09.719Z,942.80
2023-03-28T02:58:04.705Z,946.81
2023-03-28T02:58:59.876Z,945.47
2023-03-28T02:59:55.221Z,928.37
2023-03-28T03:00:50.268Z,919.42
2023-03-28T03:01:45.443Z,916.90
2023-03-28T03:02:40.649Z,905.09
2023-03-28T03:03:35.855Z,899.60
2023-03-28T03:04:31.094Z,883.52
2023-03-28T03:05:26.406Z,872.55
2023-03-28T03:06:21.442Z,869.14
2023-03-28T03:07:16.601Z,859.63
2023-03-28T03:08:11.780Z,864.08
2023-03-28T03:09:06.907Z,869.14
2023-03-28T03:10:02.161Z,856.87
2023-03-28T03:10:57.040Z,841.74
2023-03-28T03:11:52.066Z,817.51
2023-03-28T03:12:47.145Z,790.88
2023-03-28T03:13:46.668Z,794.17
2023-03-28T03:14:42.085Z,794.64
2023-03-28T03:15:37.088Z,732.78
2023-03-28T03:16:32.803Z,695.34
2023-03-28T03:17:28.001Z,638.73
2023-03-28T03:18:23.155Z,595.92
2023-03-28T03:19:19.453Z,627.31
2023-03-28T03:20:14.844Z,623.21
2023-03-28T03:21:10.442Z,539.95
2023-03-28T03:22:05.603Z,491.40
2023-03-28T03:23:00.788Z,488.52
2023-03-28T03:23:56.665Z,514.14
2023-03-28T03:24:51.915Z,524.24
2023-03-28T03:25:47.747Z,522.19
2023-03-28T03:26:42.840Z,534.32
2023-03-28T03:27:38.119Z,547.93
2023-03-28T03:28:34.046Z,558.96
2023-03-28T03:29:39.496Z,569.46
2023-03-28T03:30:25.584Z,591.16
2023-03-28T03:31:19.665Z,614.59
2023-03-28T03:32:15.490Z,639.96
2023-03-28T03:33:10.597Z,639.96
2023-03-28T03:34:05.770Z,643.04
2023-03-28T03:35:02.074Z,583.92
2023-03-28T03:35:57.477Z,463.08
2023-03-28T03:36:52.966Z,421.51
2023-03-28T03:37:48.145Z,406.85
2023-03-28T03:38:43.320Z,429.11
2023-03-28T03:39:39.227Z,459.89
2023-03-28T03:40:34.568Z,494.32
2023-03-28T03:41:30.319Z,512.95
2023-03-28T03:42:25.350Z,532.19
2023-03-28T03:43:20.689Z,535.61
2023-03-28T03:44:16.449Z,502.89
2023-03-28T03:45:11.649Z,513.74
2023-03-28T03:46:07.095Z,542.58
2023-03-28T03:47:03.017Z,552.01
2023-03-28T03:47:58.201Z,468.94
2023-03-28T03:48:54.107Z,423.65
2023-03-28T03:49:49.248Z,390.65
2023-03-28T03:50:44.614Z,358.34
2023-03-28T03:51:40.228Z,326.60
2023-03-28T03:52:35.444Z,315.60
2023-03-28T03:53:31.224Z,323.38
2023-03-28T03:54:26.393Z,363.10
2023-03-28T03:55:21.716Z,398.35
2023-03-28T03:56:17.522Z,441.32
2023-03-28T03:57:12.717Z,489.96
2023-03-28T03:58:07.918Z,532.61
2023-03-28T03:59:04.030Z,556.62
2023-03-28T03:59:59.252Z,587.52
2023-03-28T04:00:54.997Z,623.21
2023-03-28T04:01:50.184Z,649.93
2023-03-28T04:02:45.241Z,674.93
2023-03-28T04:03:41.167Z,689.59
2023-03-28T04:04:36.319Z,704.90
2023-03-28T04:05:32.218Z,696.07
2023-03-28T04:06:27.366Z,656.33
2023-03-28T04:07:22.590Z,620.89
2023-03-28T04:08:18.335Z,617.44
2023-03-28T04:09:13.556Z,626.13
2023-03-28T04:10:08.701Z,636.29
2023-03-28T04:11:05.195Z,636.90
2023-03-28T04:12:00.236Z,644.91
2023-03-28T04:12:56.001Z,647.41
2023-03-28T04:13:51.147Z,644.91
2023-03-28T04:14:46.327Z,640.57
2023-03-28T04:15:41.387Z,648.67
2023-03-28T04:16:40.366Z,649.93
2023-03-28T04:17:32.482Z,623.21
2023-03-28T04:18:26.634Z,516.92
2023-03-28T04:19:21.669Z,373.01
2023-03-28T04:20:16.697Z,345.51
2023-03-28T04:21:11.862Z,337.34
2023-03-28T04:22:06.955Z,319.60
2023-03-28T04:23:01.921Z,314.39
2023-03-28T04:23:57.070Z,325.62
2023-03-28T04:24:52.063Z,351.06
2023-03-28T04:25:47.156Z,377.30
2023-03-28T04:26:42.249Z,376.00
2023-03-28T04:27:38.037Z,394.11
2023-03-28T04:28:33.184Z,422.05
2023-03-28T04:29:28.403Z,455.49
2023-03-28T04:30:24.110Z,471.26
2023-03-28T04:31:19.347Z,482.86
2023-03-28T04:32:14.525Z,513.74
2023-03-28T04:33:09.768Z,525.07
2023-03-28T04:34:04.885Z,530.07
2023-03-28T04:35:00.119Z,535.18
2023-03-28T04:35:55.552Z,528.39
2023-03-28T04:36:51.459Z,489.96
2023-03-28T04:37:46.621Z,476.31
2023-03-28T04:38:41.937Z,464.37
2023-03-28T04:39:37.536Z,460.52
2023-03-28T04:40:32.725Z,469.93
2023-03-28T04:41:27.977Z,470.26
2023-03-28T04:42:23.132Z,468.94
2023-03-28T04:43:18.172Z,462.12
2023-03-28T04:44:13.316Z,434.99
2023-03-28T04:45:08.411Z,207.19
2023-03-28T04:46:03.732Z,165.71
2023-03-28T04:46:58.731Z,170.98
2023-03-28T04:47:53.691Z,189.26
2023-03-28T04:48:48.739Z,208.11
2023-03-28T04:49:44.782Z,221.75
2023-03-28T04:50:38.839Z,228.87
2023-03-28T04:51:35.890Z,231.94
2023-03-28T04:52:30.870Z,234.93
2023-03-28T04:53:25.886Z,230.31
2023-03-28T04:54:20.875Z,228.39
2023-03-28T04:55:15.991Z,229.99
2023-03-28T04:56:10.917Z,234.09
2023-03-28T04:57:06.224Z,238.17
2023-03-28T04:58:01.051Z,240.62
2023-03-28T04:58:56.220Z,240.97
2023-03-28T04:59:51.304Z,243.83
2023-03-28T05:00:46.455Z,253.44
2023-03-28T05:01:41.647Z,263.20
2023-03-28T05:02:37.264Z,272.83
2023-03-28T05:03:32.347Z,280.29
2023-03-28T05:04:27.579Z,281.97
2023-03-28T05:05:23.339Z,290.46
2023-03-28T05:06:18.665Z,287.40
2023-03-28T05:07:14.614Z,276.97
2023-03-28T05:08:09.844Z,221.45
2023-03-28T05:09:05.128Z,91.06
2023-03-28T05:10:01.061Z,105.62
2023-03-28T05:10:56.403Z,132.97
2023-03-28T05:11:52.058Z,164.57
2023-03-28T05:12:47.996Z,185.73
2023-03-28T05:13:43.378Z,201.22
2023-03-28T05:14:39.155Z,210.78
2023-03-28T05:15:34.574Z,219.82
2023-03-28T05:16:29.946Z,230.96
2023-03-28T05:17:25.792Z,231.29
2023-03-28T05:18:20.822Z,224.48
2023-03-28T05:19:16.659Z,214.50
2023-03-28T05:20:12.029Z,217.63
2023-03-28T05:21:07.540Z,216.49
2023-03-28T05:22:03.343Z,212.42
2023-03-28T05:22:58.565Z,205.24
2023-03-28T05:23:53.765Z,189.92
2023-03-28T05:24:50.101Z,184.79
2023-03-28T05:25:45.451Z,183.38
2023-03-28T05:26:41.268Z,181.19
2023-03-28T05:27:36.608Z,180.40
2023-03-28T05:28:31.934Z,180.60
2023-03-28T05:29:27.578Z,179.43
2023-03-28T05:30:22.895Z,181.78
2023-03-28T05:31:18.583Z,182.98
2023-03-28T05:32:14.013Z,182.78
2023-03-28T05:33:09.270Z,169.24
2023-03-28T05:34:05.117Z,160.30
2023-03-28T05:35:00.415Z,151.98
2023-03-28T05:35:55.865Z,150.34
2023-03-28T05:36:52.114Z,151.02
2023-03-28T05:37:47.268Z,150.34
2023-03-28T05:38:42.940Z,153.24
2023-03-28T05:39:38.271Z,159.69
2023-03-28T05:40:33.503Z,162.33
2023-03-28T05:41:29.609Z,168.73
2023-03-28T05:42:24.725Z,177.53
2023-03-28T05:43:20.736Z,182.38
2023-03-28T05:44:17.470Z,178.48
2023-03-28T05:45:11.267Z,170.80
2023-03-28T05:46:06.610Z,167.88
2023-03-28T05:47:01.787Z,167.54
2023-03-28T05:47:56.750Z,169.59
2023-03-28T05:48:57.132Z,166.54
2023-03-28T05:49:54.810Z,166.38
2023-03-28T05:50:47.798Z,169.24
2023-03-28T05:51:43.740Z,166.71
2023-03-28T05:52:39.066Z,163.44
2023-03-28T05:53:34.615Z,159.54
2023-03-28T05:54:30.670Z,148.33
2023-03-28T05:55:26.193Z,140.59
2023-03-28T05:56:22.041Z,140.59
2023-03-28T05:57:17.404Z,145.87
2023-03-28T05:58:12.791Z,147.68
2023-03-28T05:59:08.553Z,154.09
2023-03-28T06:00:03.969Z,156.69
2023-03-28T06:00:59.976Z,160.92
2023-03-28T06:01:55.270Z,166.38
2023-03-28T06:02:50.586Z,151.57
2023-03-28T06:03:46.068Z,151.29
2023-03-28T06:04:41.345Z,165.88
2023-03-28T06:05:37.198Z,174.19
2023-03-28T06:06:32.720Z,167.04
2023-03-28T06:07:39.193Z,160.15
2023-03-28T06:08:24.878Z,170.11
2023-03-28T06:09:19.291Z,192.48
2023-03-28T06:10:14.754Z,198.54
2023-03-28T06:11:10.233Z,212.01
2023-03-28T06:12:05.130Z,227.12
2023-03-28T06:13:00.231Z,240.97
2023-03-28T06:13:55.310Z,244.74
2023-03-28T06:14:50.410Z,251.88
2023-03-28T06:15:45.534Z,265.33
2023-03-28T06:16:40.612Z,277.21
2023-03-28T06:17:35.662Z,310.23
2023-03-28T06:18:30.624Z,338.73
2023-03-28T06:19:25.737Z,355.62
2023-03-28T06:20:20.666Z,400.02
2023-03-28T06:21:15.773Z,448.14
2023-03-28T06:22:10.807Z,412.90
2023-03-28T06:23:05.930Z,462.76
2023-03-28T06:24:00.938Z,485.68
2023-03-28T06:24:56.031Z,525.07
2023-03-28T06:25:50.965Z,564.16
2023-03-28T06:26:46.124Z,627.31
2023-03-28T06:27:41.080Z,645.53
2023-03-28T06:28:38.854Z,587.00
2023-03-28T06:29:33.863Z,563.68
2023-03-28T06:30:28.995Z,478.36
2023-03-28T06:31:24.201Z,360.31
2023-03-28T06:32:19.218Z,397.16
2023-03-28T06:33:14.173Z,465.34
2023-03-28T06:34:09.169Z,513.34
2023-03-28T06:35:04.249Z,512.16
2023-03-28T06:35:59.676Z,489.96
2023-03-28T06:36:54.428Z,529.65
2023-03-28T06:37:50.618Z,361.10
2023-03-28T06:38:46.164Z,226.97
2023-03-28T06:39:41.961Z,306.75
2023-03-28T06:40:37.440Z,354.85
2023-03-28T06:41:32.833Z,379.96
2023-03-28T06:42:28.825Z,374.71
2023-03-28T06:43:24.308Z,328.56
2023-03-28T06:44:19.980Z,311.11
2023-03-28T06:45:15.517Z,250.92
2023-03-28T06:46:10.996Z,256.61
2023-03-28T06:47:06.767Z,348.08
2023-03-28T06:48:02.122Z,422.58
2023-03-28T06:48:57.501Z,470.26
2023-03-28T06:49:53.876Z,522.19
2023-03-28T06:50:49.267Z,558.49
2023-03-28T06:51:44.989Z,587.00
2023-03-28T06:52:40.485Z,646.78
2023-03-28T06:53:35.966Z,574.36
2023-03-28T06:54:31.576Z,584.43
2023-03-28T06:55:27.114Z,620.89
2023-03-28T06:56:22.742Z,664.84
2023-03-28T06:57:18.106Z,728.78
2023-03-28T06:58:13.424Z,765.92
2023-03-28T06:59:09.165Z,829.19
2023-03-28T07:00:04.697Z,897.18
2023-03-28T07:01:00.210Z,910.64
2023-03-28T07:01:56.617Z,959.74
2023-03-28T07:02:52.002Z,970.20
2023-03-28T07:03:49.946Z,1011.36
2023-03-28T07:04:43.058Z,640.57
2023-03-28T07:05:38.604Z,522.19
2023-03-28T07:06:34.204Z,630.87
2023-03-28T07:07:29.709Z,716.26
2023-03-28T07:08:25.455Z,780.70
2023-03-28T07:09:20.928Z,821.54
2023-03-28T07:10:16.413Z,887.63
2023-03-28T07:11:12.046Z,1026.92
2023-03-28T07:12:07.436Z,1119.97
2023-03-28T07:13:02.945Z,1084.48
2023-03-28T07:13:59.278Z,1099.67
2023-03-28T07:14:54.665Z,1184.56
2023-03-28T07:15:50.476Z,1175.18
2023-03-28T07:16:45.913Z,1180.37
2023-03-28T07:17:41.366Z,1227.02
2023-03-28T07:18:37.286Z,1323.09
2023-03-28T07:19:32.620Z,1386.29
2023-03-28T07:20:28.638Z,1465.42
2023-03-28T07:21:23.838Z,1506.77
2023-03-28T07:22:19.529Z,1508.47
2023-03-28T07:23:15.238Z,1483.33
2023-03-28T07:24:10.702Z,1480.04
2023-03-28T07:25:06.054Z,1543.35
2023-03-28T07:26:04.884Z,1493.29
2023-03-28T07:27:15.326Z,1136.17
2023-03-28T07:28:27.793Z,1194.10
2023-03-28T07:29:22.362Z,1253.52
2023-03-28T07:30:18.103Z,1218.07
2023-03-28T07:31:13.677Z,1328.36
2023-03-28T07:32:09.053Z,1349.85
2023-03-28T07:33:14.833Z,1358.09
2023-03-28T07:34:01.278Z,1351.21
2023-03-28T07:34:55.601Z,1392.07
2023-03-28T07:35:51.365Z,1352.58
2023-03-28T07:36:46.875Z,1381.99
2023-03-28T07:37:42.287Z,1418.70
2023-03-28T07:38:37.661Z,1465.42
2023-03-28T07:39:33.055Z,1454.25
2023-03-28T07:40:28.724Z,1409.71
2023-03-28T07:41:24.196Z,1418.70
2023-03-28T07:42:19.683Z,1245.34
2023-03-28T07:43:15.148Z,1240.71
2023-03-28T07:44:10.539Z,1297.38
2023-03-28T07:45:05.916Z,1366.43
2023-03-28T07:46:01.343Z,1471.89
2023-03-28T07:46:56.742Z,1514.46
2023-03-28T07:47:52.128Z,1562.32
2023-03-28T07:48:47.517Z,1356.71
2023-03-28T07:49:43.006Z,1202.70
2023-03-28T07:50:38.565Z,1126.58
2023-03-28T07:51:33.758Z,1156.85
2023-03-28T07:52:29.156Z,1277.51
2023-03-28T07:53:24.593Z,1411.20
2023-03-28T07:54:20.203Z,1491.62
2023-03-28T07:55:15.846Z,1470.26
2023-03-28T07:56:11.179Z,1443.24
2023-03-28T07:57:06.697Z,1515.32
2023-03-28T07:58:02.177Z,1665.63
2023-03-28T07:58:57.625Z,1775.27
2023-03-28T07:59:53.264Z,1818.80
2023-03-28T08:00:48.795Z,1954.61
2023-03-28T08:01:44.089Z,1916.73
2023-03-28T08:02:41.986Z,2035.06
2023-03-28T08:03:35.172Z,2052.27
2023-03-28T08:04:30.654Z,2038.17
2023-03-28T08:05:26.100Z,2053.85
2023-03-28T08:06:31.767Z,2074.59
2023-03-28T08:07:17.822Z,1650.19
2023-03-28T08:08:12.235Z,1036.49
2023-03-28T08:09:07.699Z,716.26
2023-03-28T08:10:03.178Z,734.40
2023-03-28T08:10:58.776Z,1012.90
2023-03-28T08:11:54.212Z,1348.48
2023-03-28T08:12:49.623Z,1617.20
2023-03-28T08:13:45.173Z,1725.92
2023-03-28T08:14:40.417Z,1937.59
2023-03-28T08:15:35.942Z,2027.33
2023-03-28T08:16:31.209Z,2120.73
2023-03-28T08:17:26.734Z,2077.82
2023-03-28T08:18:22.325Z,1833.79
2023-03-28T08:19:17.764Z,1936.19
2023-03-28T08:20:13.452Z,2047.55
2023-03-28T08:21:08.634Z,2230.58
2023-03-28T08:22:04.126Z,2431.69
2023-03-28T08:22:59.475Z,2627.95
2023-03-28T08:23:54.961Z,1850.31
2023-03-28T08:24:50.458Z,2013.57
2023-03-28T08:25:45.687Z,2282.05
2023-03-28T08:26:41.162Z,2518.87
2023-03-28T08:27:36.538Z,2552.58
2023-03-28T08:28:31.957Z,2497.66
2023-03-28T08:29:27.440Z,2497.66
2023-03-28T08:30:22.916Z,2516.49
2023-03-28T08:31:18.224Z,2547.71
2023-03-28T08:32:13.638Z,2667.33
2023-03-28T08:33:08.817Z,2654.08
2023-03-28T08:34:03.811Z,2672.67
2023-03-28T08:34:59.078Z,2699.70
2023-03-28T08:35:53.971Z,2691.53
2023-03-28T08:36:49.053Z,2810.53
2023-03-28T08:37:44.116Z,2749.74
2023-03-28T08:38:39.151Z,2518.87
2023-03-28T08:39:34.337Z,2599.80
2023-03-28T08:40:29.231Z,2201.15
2023-03-28T08:41:24.253Z,1748.53
2023-03-28T08:42:19.326Z,1821.28
2023-03-28T08:43:14.448Z,1880.28
2023-03-28T08:44:09.795Z,1992.54
2023-03-28T08:45:04.887Z,2239.93
2023-03-28T08:46:00.263Z,2403.24
2023-03-28T08:46:55.772Z,2398.92
2023-03-28T08:47:51.273Z,2329.84
2023-03-28T08:48:46.481Z,2199.34
2023-03-28T08:49:42.080Z,1888.26
2023-03-28T08:50:37.490Z,1760.05
2023-03-28T08:51:32.982Z,1761.21
2023-03-28T08:52:28.334Z,1878.96
2023-03-28T08:53:24.024Z,2068.16
2023-03-28T08:54:19.450Z,2087.57
2023-03-28T08:55:14.948Z,1946.06
2023-03-28T08:56:09.856Z,1980.71
2023-03-28T08:57:04.938Z,2172.50
2023-03-28T08:58:00.041Z,2373.33
2023-03-28T08:58:55.235Z,2533.21
2023-03-28T08:59:56.494Z,2659.36
2023-03-28T09:00:51.906Z,2746.91
2023-03-28T09:01:47.414Z,2490.67
2023-03-28T09:02:43.113Z,2564.84
2023-03-28T09:03:38.534Z,2622.79
2023-03-28T09:04:34.127Z,2716.18
2023-03-28T09:05:30.348Z,2752.58
2023-03-28T09:06:25.677Z,2927.63
2023-03-28T09:07:21.574Z,3102.85
2023-03-28T09:08:19.738Z,3463.03
2023-03-28T09:09:12.546Z,3716.07
2023-03-28T09:10:07.985Z,3682.76
2023-03-28T09:11:02.913Z,3501.64
2023-03-28T09:12:01.936Z,3256.10
2023-03-28T09:12:57.418Z,3308.55
2023-03-28T09:13:52.805Z,3445.16
2023-03-28T09:14:50.704Z,3632.65
2023-03-28T09:15:44.374Z,3855.60
2023-03-28T09:16:39.875Z,3938.05
2023-03-28T09:17:36.207Z,3914.96
2023-03-28T09:18:31.768Z,3979.14
2023-03-28T09:19:36.995Z,4003.00
2023-03-28T09:20:24.110Z,3889.29
2023-03-28T09:21:18.564Z,4204.72
2023-03-28T09:22:15.941Z,4366.31
2023-03-28T09:23:10.581Z,4175.14
2023-03-28T09:24:06.587Z,3976.17
2023-03-28T09:25:01.686Z,3768.52
2023-03-28T09:25:58.869Z,3768.52
2023-03-28T09:26:53.015Z,3757.92
2023-03-28T09:27:48.546Z,3236.36
2023-03-28T09:28:43.895Z,2778.36
2023-03-28T09:29:40.463Z,2338.00
2023-03-28T09:30:35.724Z,2174.27
2023-03-28T09:31:31.604Z,2307.69
2023-03-28T09:32:27.022Z,2617.65
2023-03-28T09:33:22.587Z,2886.49
2023-03-28T09:34:18.457Z,2895.88
2023-03-28T09:35:13.762Z,3099.25
2023-03-28T09:36:09.612Z,3220.75
2023-03-28T09:37:05.008Z,3182.36
2023-03-28T09:38:00.293Z,3104.65
2023-03-28T09:38:56.745Z,3207.21
2023-03-28T09:39:51.764Z,3068.97
2023-03-28T09:40:47.239Z,2991.60
2023-03-28T09:41:43.535Z,3122.81
2023-03-28T09:42:39.012Z,3290.20
2023-03-28T09:43:34.993Z,3555.26
2023-03-28T09:44:31.239Z,3622.79
2023-03-28T09:45:25.981Z,3903.51
2023-03-28T09:46:22.277Z,3923.59
2023-03-28T09:47:17.725Z,3463.03
2023-03-28T09:48:13.910Z,3806.13
2023-03-28T09:49:08.924Z,4012.02
2023-03-28T09:50:12.502Z,4139.54
2023-03-28T09:51:01.424Z,4244.83
2023-03-28T09:51:55.724Z,4380.64
2023-03-28T09:52:51.089Z,4323.89
2023-03-28T09:53:47.707Z,4158.88
2023-03-28T09:54:42.929Z,4214.68
2023-03-28T09:55:38.783Z,4327.39
2023-03-28T09:56:34.238Z,4238.10
2023-03-28T09:57:29.817Z,4272.00
2023-03-28T09:58:25.591Z,3744.74
2023-03-28T09:59:21.081Z,3900.66
2023-03-28T10:00:16.550Z,4211.36
2023-03-28T10:01:11.926Z,4700.70
2023-03-28T10:02:07.673Z,4894.59
2023-03-28T10:03:03.269Z,5032.99
2023-03-28T10:03:58.770Z,4976.70
2023-03-28T10:04:55.030Z,4912.60
2023-03-28T10:05:50.308Z,4750.89
2023-03-28T10:06:46.128Z,4560.21
2023-03-28T10:07:41.756Z,4427.86
2023-03-28T10:08:37.063Z,4402.31
2023-03-28T10:09:32.758Z,4296.06
2023-03-28T10:10:28.170Z,4583.69
2023-03-28T10:11:23.913Z,4742.45
2023-03-28T10:12:19.311Z,5139.56
2023-03-28T10:13:14.965Z,5393.94
2023-03-28T10:14:10.528Z,5399.39
2023-03-28T10:15:05.973Z,5574.11
2023-03-28T10:16:01.398Z,5686.90
2023-03-28T10:16:57.791Z,5754.31
2023-03-28T10:17:53.458Z,5868.13
2023-03-28T10:18:48.863Z,5144.51
2023-03-28T10:19:44.330Z,4464.88
2023-03-28T10:20:39.722Z,1944.65
2023-03-28T10:21:34.791Z,1909.87
2023-03-28T10:22:29.805Z,2285.96
2023-03-28T10:23:25.137Z,2855.61
2023-03-28T10:24:19.987Z,3352.17
2023-03-28T10:25:15.175Z,3612.99
2023-03-28T10:26:10.168Z,3627.72
2023-03-28T10:27:05.262Z,3550.53
2023-03-28T10:28:00.483Z,3375.47
2023-03-28T10:28:55.440Z,3494.76
2023-03-28T10:29:50.490Z,3677.69
2023-03-28T10:30:45.591Z,4000.00
2023-03-28T10:31:40.674Z,4275.42
2023-03-28T10:32:35.822Z,3946.78
2023-03-28T10:33:30.736Z,3914.96
2023-03-28T10:34:29.896Z,4184.95
2023-03-28T10:35:26.635Z,4517.77
2023-03-28T10:36:19.767Z,4935.31
2023-03-28T10:37:14.712Z,5066.41
2023-03-28T10:38:09.801Z,4967.44
2023-03-28T10:39:05.039Z,5000.00
2023-03-28T10:39:59.996Z,4575.83
2023-03-28T10:40:55.052Z,5028.25
2023-03-28T10:41:50.055Z,5393.94
2023-03-28T10:42:45.040Z,5626.98
2023-03-28T10:43:41.177Z,5816.99
2023-03-28T10:44:36.731Z,6047.56
2023-03-28T10:45:32.700Z,5900.55
2023-03-28T10:46:28.164Z,6092.41
2023-03-28T10:47:23.694Z,6006.75
2023-03-28T10:48:19.364Z,4763.60
2023-03-28T10:49:15.132Z,4684.21
2023-03-28T10:50:10.742Z,5230.17
2023-03-28T10:51:06.078Z,5539.42
2023-03-28T10:52:01.415Z,6106.35
2023-03-28T10:52:57.279Z,6508.23
2023-03-28T10:53:52.683Z,6980.39
2023-03-28T10:54:48.177Z,7305.06
2023-03-28T10:55:44.526Z,4540.82
2023-03-28T10:56:40.090Z,3723.85
2023-03-28T10:57:35.927Z,3583.89
2023-03-28T10:58:31.469Z,3787.23
2023-03-28T10:59:26.982Z,4211.36
2023-03-28T11:00:22.692Z,4446.29
2023-03-28T11:01:18.168Z,4591.57
2023-03-28T11:02:14.127Z,4935.31
2023-03-28T11:03:09.406Z,5281.90
2023-03-28T11:04:05.016Z,4603.45
2023-03-28T11:05:00.694Z,4139.54
2023-03-28T11:06:08.582Z,4450.00
2023-03-28T11:06:52.458Z,4607.42
2023-03-28T11:07:47.031Z,4627.38
2023-03-28T11:08:42.888Z,4540.82
2023-03-28T11:09:38.208Z,4643.48
2023-03-28T11:10:33.647Z,4908.09
2023-03-28T11:11:29.328Z,5139.56
2023-03-28T11:12:28.984Z,5204.68
2023-03-28T11:13:21.144Z,5340.00
2023-03-28T11:14:15.655Z,5674.81
2023-03-28T11:15:11.332Z,5986.55
2023-03-28T11:16:06.874Z,5986.55
2023-03-28T11:17:02.399Z,5986.55
2023-03-28T11:17:58.691Z,6152.07
2023-03-28T11:18:54.155Z,5680.85
2023-03-28T11:19:50.000Z,4894.59
2023-03-28T11:20:45.476Z,5493.83